sensor_id;sensor_type;location;lat;lon;timestamp;P1;durP1;ratioP1;P2;durP2;ratioP2
61104;SDS011;46987;32.638;-115.438;2024-01-15T00:00:59;8.55;;;3.03;;
61104;SDS011;46987;32.638;-115.438;2024-01-15T00:03:26;8.60;;;3.20;;
61104;SDS011;46987;32.638;-115.438;2024-01-15T00:05:52;8.00;;;2.88;;
61104;SDS011;46987;32.638;-115.438;2024-01-15T00:08:21;20.77;;;4.43;;
61104;SDS011;46987;32.638;-115.438;2024-01-15T00:10:48;9.38;;;3.40;;
61104;SDS011;46987;32.638;-115.438;2024-01-15T00:13:15;13.52;;;3.40;;
61104;SDS011;46987;32.638;-115.438;2024-01-15T00:15:41;12.88;;;3.05;;
61104;SDS011;46987;32.638;-115.438;2024-01-15T00:18:08;10.68;;;3.33;;
61104;SDS011;46987;32.638;-115.438;2024-01-15T00:20:35;11.38;;;3.17;;
61104;SDS011;46987;32.638;-115.438;2024-01-15T00:23:01;8.60;;;3.08;;
61104;SDS011;46987;32.638;-115.438;2024-01-15T00:25:30;13.52;;;3.35;;
61104;SDS011;46987;32.638;-115.438;2024-01-15T00:27:57;11.98;;;2.95;;
61104;SDS011;46987;32.638;-115.438;2024-01-15T00:30:23;8.77;;;2.60;;
61104;SDS011;46987;32.638;-115.438;2024-01-15T00:32:50;10.55;;;2.78;;
61104;SDS011;46987;32.638;-115.438;2024-01-15T00:35:16;10.02;;;2.63;;
61104;SDS011;46987;32.638;-115.438;2024-01-15T00:37:43;16.17;;;2.88;;
61104;SDS011;46987;32.638;-115.438;2024-01-15T00:40:10;10.68;;;2.80;;
61104;SDS011;46987;32.638;-115.438;2024-01-15T00:42:39;7.55;;;3.20;;
61104;SDS011;46987;32.638;-115.438;2024-01-15T00:45:06;19.55;;;3.60;;
61104;SDS011;46987;32.638;-115.438;2024-01-15T00:47:34;13.65;;;3.70;;
61104;SDS011;46987;32.638;-115.438;2024-01-15T00:50:01;13.93;;;3.10;;
61104;SDS011;46987;32.638;-115.438;2024-01-15T00:52:29;11.10;;;3.75;;
61104;SDS011;46987;32.638;-115.438;2024-01-15T00:54:56;15.20;;;3.90;;
61104;SDS011;46987;32.638;-115.438;2024-01-15T00:57:24;13.50;;;3.92;;
61104;SDS011;46987;32.638;-115.438;2024-01-15T00:59:52;14.18;;;3.83;;
61104;SDS011;46987;32.638;-115.438;2024-01-15T01:02:20;15.90;;;4.55;;
61104;SDS011;46987;32.638;-115.438;2024-01-15T01:04:48;16.23;;;5.57;;
61104;SDS011;46987;32.638;-115.438;2024-01-15T01:07:16;18.92;;;6.10;;
61104;SDS011;46987;32.638;-115.438;2024-01-15T01:09:46;25.08;;;6.95;;
61104;SDS011;46987;32.638;-115.438;2024-01-15T01:12:15;14.98;;;5.65;;
61104;SDS011;46987;32.638;-115.438;2024-01-15T01:14:44;17.15;;;5.80;;
61104;SDS011;46987;32.638;-115.438;2024-01-15T01:17:14;15.50;;;5.93;;
61104;SDS011;46987;32.638;-115.438;2024-01-15T01:19:42;16.27;;;6.32;;
61104;SDS011;46987;32.638;-115.438;2024-01-15T01:22:10;22.17;;;6.25;;
61104;SDS011;46987;32.638;-115.438;2024-01-15T01:24:38;16.10;;;6.25;;
61104;SDS011;46987;32.638;-115.438;2024-01-15T01:27:06;18.60;;;6.15;;
61104;SDS011;46987;32.638;-115.438;2024-01-15T01:29:34;18.73;;;6.40;;
61104;SDS011;46987;32.638;-115.438;2024-01-15T01:32:08;20.30;;;7.72;;
61104;SDS011;46987;32.638;-115.438;2024-01-15T01:34:41;22.90;;;6.00;;
61104;SDS011;46987;32.638;-115.438;2024-01-15T01:37:12;18.65;;;6.80;;
61104;SDS011;46987;32.638;-115.438;2024-01-15T01:39:43;24.40;;;7.78;;
61104;SDS011;46987;32.638;-115.438;2024-01-15T01:42:11;23.20;;;6.80;;
61104;SDS011;46987;32.638;-115.438;2024-01-15T01:44:39;32.28;;;8.75;;
61104;SDS011;46987;32.638;-115.438;2024-01-15T01:47:07;26.65;;;9.02;;
61104;SDS011;46987;32.638;-115.438;2024-01-15T01:49:35;25.95;;;8.75;;
61104;SDS011;46987;32.638;-115.438;2024-01-15T01:52:07;22.23;;;7.88;;
61104;SDS011;46987;32.638;-115.438;2024-01-15T01:54:35;31.90;;;7.82;;
61104;SDS011;46987;32.638;-115.438;2024-01-15T01:57:03;28.90;;;8.80;;
61104;SDS011;46987;32.638;-115.438;2024-01-15T01:59:33;31.60;;;7.68;;
61104;SDS011;46987;32.638;-115.438;2024-01-15T02:02:01;26.17;;;8.60;;
61104;SDS011;46987;32.638;-115.438;2024-01-15T02:04:31;19.20;;;7.75;;
61104;SDS011;46987;32.638;-115.438;2024-01-15T02:06:59;27.73;;;8.70;;
61104;SDS011;46987;32.638;-115.438;2024-01-15T02:09:29;37.88;;;9.55;;
61104;SDS011;46987;32.638;-115.438;2024-01-15T02:11:56;27.35;;;8.73;;
61104;SDS011;46987;32.638;-115.438;2024-01-15T02:14:24;25.38;;;9.55;;
61104;SDS011;46987;32.638;-115.438;2024-01-15T02:16:52;31.52;;;10.48;;
61104;SDS011;46987;32.638;-115.438;2024-01-15T02:19:21;19.20;;;11.05;;
61104;SDS011;46987;32.638;-115.438;2024-01-15T02:21:49;42.55;;;15.52;;
61104;SDS011;46987;32.638;-115.438;2024-01-15T02:24:22;40.08;;;16.00;;
61104;SDS011;46987;32.638;-115.438;2024-01-15T02:29:16;28.75;;;14.40;;
61104;SDS011;46987;32.638;-115.438;2024-01-15T02:31:44;30.67;;;14.57;;
61104;SDS011;46987;32.638;-115.438;2024-01-15T02:34:12;31.17;;;13.35;;
61104;SDS011;46987;32.638;-115.438;2024-01-15T02:36:41;22.33;;;11.18;;
61104;SDS011;46987;32.638;-115.438;2024-01-15T02:39:09;43.38;;;13.48;;
61104;SDS011;46987;32.638;-115.438;2024-01-15T02:41:39;31.23;;;11.65;;
61104;SDS011;46987;32.638;-115.438;2024-01-15T02:44:08;28.60;;;12.95;;
61104;SDS011;46987;32.638;-115.438;2024-01-15T02:46:36;27.65;;;11.93;;
61104;SDS011;46987;32.638;-115.438;2024-01-15T02:49:04;25.35;;;12.63;;
61104;SDS011;46987;32.638;-115.438;2024-01-15T02:51:32;34.30;;;13.20;;
61104;SDS011;46987;32.638;-115.438;2024-01-15T02:53:59;36.10;;;13.65;;
61104;SDS011;46987;32.638;-115.438;2024-01-15T02:56:27;26.30;;;11.30;;
61104;SDS011;46987;32.638;-115.438;2024-01-15T02:58:57;33.92;;;12.07;;
61104;SDS011;46987;32.638;-115.438;2024-01-15T03:01:24;27.55;;;12.35;;
61104;SDS011;46987;32.638;-115.438;2024-01-15T03:03:52;26.95;;;11.90;;
61104;SDS011;46987;32.638;-115.438;2024-01-15T03:06:21;31.67;;;11.52;;
61104;SDS011;46987;32.638;-115.438;2024-01-15T03:08:48;27.60;;;11.57;;
61104;SDS011;46987;32.638;-115.438;2024-01-15T03:11:15;19.55;;;10.60;;
61104;SDS011;46987;32.638;-115.438;2024-01-15T03:13:42;22.83;;;10.02;;
61104;SDS011;46987;32.638;-115.438;2024-01-15T03:16:10;24.17;;;10.98;;
61104;SDS011;46987;32.638;-115.438;2024-01-15T03:18:37;19.25;;;9.25;;
61104;SDS011;46987;32.638;-115.438;2024-01-15T03:21:04;15.70;;;8.82;;
61104;SDS011;46987;32.638;-115.438;2024-01-15T03:23:31;17.60;;;9.25;;
61104;SDS011;46987;32.638;-115.438;2024-01-15T03:25:58;27.30;;;10.88;;
61104;SDS011;46987;32.638;-115.438;2024-01-15T03:28:25;25.73;;;12.68;;
61104;SDS011;46987;32.638;-115.438;2024-01-15T03:30:52;23.13;;;12.57;;
61104;SDS011;46987;32.638;-115.438;2024-01-15T03:33:25;23.75;;;13.40;;
61104;SDS011;46987;32.638;-115.438;2024-01-15T03:35:53;30.08;;;13.93;;
61104;SDS011;46987;32.638;-115.438;2024-01-15T03:38:20;25.35;;;13.70;;
61104;SDS011;46987;32.638;-115.438;2024-01-15T03:40:47;25.58;;;12.35;;
61104;SDS011;46987;32.638;-115.438;2024-01-15T03:43:14;26.33;;;12.35;;
61104;SDS011;46987;32.638;-115.438;2024-01-15T03:45:40;21.10;;;12.75;;
61104;SDS011;46987;32.638;-115.438;2024-01-15T03:48:07;24.40;;;12.02;;
61104;SDS011;46987;32.638;-115.438;2024-01-15T03:50:36;23.92;;;12.25;;
61104;SDS011;46987;32.638;-115.438;2024-01-15T03:53:02;25.65;;;13.45;;
61104;SDS011;46987;32.638;-115.438;2024-01-15T03:55:29;22.60;;;13.40;;
61104;SDS011;46987;32.638;-115.438;2024-01-15T03:57:56;31.10;;;13.50;;
61104;SDS011;46987;32.638;-115.438;2024-01-15T04:00:23;27.52;;;14.70;;
61104;SDS011;46987;32.638;-115.438;2024-01-15T04:02:49;26.55;;;13.48;;
61104;SDS011;46987;32.638;-115.438;2024-01-15T04:05:16;27.98;;;14.68;;
61104;SDS011;46987;32.638;-115.438;2024-01-15T04:07:44;29.38;;;13.80;;
61104;SDS011;46987;32.638;-115.438;2024-01-15T04:10:11;32.00;;;15.75;;
61104;SDS011;46987;32.638;-115.438;2024-01-15T04:12:38;28.60;;;18.30;;
61104;SDS011;46987;32.638;-115.438;2024-01-15T04:15:05;23.33;;;15.55;;
61104;SDS011;46987;32.638;-115.438;2024-01-15T04:17:32;27.88;;;16.30;;
61104;SDS011;46987;32.638;-115.438;2024-01-15T04:20:00;26.92;;;15.90;;
61104;SDS011;46987;32.638;-115.438;2024-01-15T04:22:28;28.65;;;16.75;;
61104;SDS011;46987;32.638;-115.438;2024-01-15T04:24:57;37.10;;;15.85;;
61104;SDS011;46987;32.638;-115.438;2024-01-15T04:27:24;27.05;;;15.45;;
61104;SDS011;46987;32.638;-115.438;2024-01-15T04:29:51;36.85;;;18.10;;
61104;SDS011;46987;32.638;-115.438;2024-01-15T04:32:19;32.22;;;16.42;;
61104;SDS011;46987;32.638;-115.438;2024-01-15T04:34:46;29.63;;;17.65;;
61104;SDS011;46987;32.638;-115.438;2024-01-15T04:37:13;35.22;;;17.48;;
61104;SDS011;46987;32.638;-115.438;2024-01-15T04:39:40;32.63;;;17.75;;
61104;SDS011;46987;32.638;-115.438;2024-01-15T04:42:09;32.70;;;19.52;;
61104;SDS011;46987;32.638;-115.438;2024-01-15T04:44:36;36.13;;;19.42;;
61104;SDS011;46987;32.638;-115.438;2024-01-15T04:47:03;30.83;;;19.38;;
61104;SDS011;46987;32.638;-115.438;2024-01-15T04:49:30;34.22;;;19.95;;
61104;SDS011;46987;32.638;-115.438;2024-01-15T04:51:56;35.33;;;19.27;;
61104;SDS011;46987;32.638;-115.438;2024-01-15T04:54:23;40.42;;;19.35;;
61104;SDS011;46987;32.638;-115.438;2024-01-15T04:56:50;41.35;;;21.10;;
61104;SDS011;46987;32.638;-115.438;2024-01-15T04:59:18;42.28;;;19.38;;
61104;SDS011;46987;32.638;-115.438;2024-01-15T05:01:45;29.85;;;17.98;;
61104;SDS011;46987;32.638;-115.438;2024-01-15T05:04:11;35.78;;;17.65;;
61104;SDS011;46987;32.638;-115.438;2024-01-15T05:06:38;31.73;;;18.27;;
61104;SDS011;46987;32.638;-115.438;2024-01-15T05:09:05;36.97;;;19.33;;
61104;SDS011;46987;32.638;-115.438;2024-01-15T05:11:31;34.67;;;17.80;;
61104;SDS011;46987;32.638;-115.438;2024-01-15T05:13:58;29.17;;;17.15;;
61104;SDS011;46987;32.638;-115.438;2024-01-15T05:16:27;31.25;;;17.20;;
61104;SDS011;46987;32.638;-115.438;2024-01-15T05:18:53;37.53;;;17.88;;
61104;SDS011;46987;32.638;-115.438;2024-01-15T05:21:20;33.55;;;16.95;;
61104;SDS011;46987;32.638;-115.438;2024-01-15T05:23:47;29.25;;;16.63;;
61104;SDS011;46987;32.638;-115.438;2024-01-15T05:26:13;27.85;;;16.05;;
61104;SDS011;46987;32.638;-115.438;2024-01-15T05:28:41;28.00;;;17.42;;
61104;SDS011;46987;32.638;-115.438;2024-01-15T05:31:08;29.20;;;16.65;;
61104;SDS011;46987;32.638;-115.438;2024-01-15T05:33:37;32.38;;;16.35;;
61104;SDS011;46987;32.638;-115.438;2024-01-15T05:36:04;31.38;;;16.50;;
61104;SDS011;46987;32.638;-115.438;2024-01-15T05:38:30;34.13;;;17.23;;
61104;SDS011;46987;32.638;-115.438;2024-01-15T05:40:57;26.90;;;16.10;;
61104;SDS011;46987;32.638;-115.438;2024-01-15T05:43:24;29.95;;;17.23;;
61104;SDS011;46987;32.638;-115.438;2024-01-15T05:45:50;40.97;;;17.65;;
61104;SDS011;46987;32.638;-115.438;2024-01-15T05:48:17;29.25;;;17.65;;
61104;SDS011;46987;32.638;-115.438;2024-01-15T05:50:46;30.05;;;17.45;;
61104;SDS011;46987;32.638;-115.438;2024-01-15T05:53:13;31.20;;;18.10;;
61104;SDS011;46987;32.638;-115.438;2024-01-15T05:55:39;29.42;;;17.55;;
61104;SDS011;46987;32.638;-115.438;2024-01-15T05:58:06;34.60;;;18.00;;
61104;SDS011;46987;32.638;-115.438;2024-01-15T06:00:33;30.23;;;16.80;;
61104;SDS011;46987;32.638;-115.438;2024-01-15T06:03:01;29.67;;;16.45;;
61104;SDS011;46987;32.638;-115.438;2024-01-15T06:05:28;31.60;;;18.02;;
61104;SDS011;46987;32.638;-115.438;2024-01-15T06:07:56;33.90;;;18.60;;
61104;SDS011;46987;32.638;-115.438;2024-01-15T06:10:23;31.38;;;18.63;;
61104;SDS011;46987;32.638;-115.438;2024-01-15T06:12:50;32.33;;;16.35;;
61104;SDS011;46987;32.638;-115.438;2024-01-15T06:15:17;27.63;;;17.17;;
61104;SDS011;46987;32.638;-115.438;2024-01-15T06:17:43;31.52;;;18.13;;
61104;SDS011;46987;32.638;-115.438;2024-01-15T06:20:11;36.30;;;19.50;;
61104;SDS011;46987;32.638;-115.438;2024-01-15T06:22:38;34.70;;;19.15;;
61104;SDS011;46987;32.638;-115.438;2024-01-15T06:25:07;32.60;;;17.92;;
61104;SDS011;46987;32.638;-115.438;2024-01-15T06:27:34;29.65;;;18.13;;
61104;SDS011;46987;32.638;-115.438;2024-01-15T06:30:01;31.70;;;19.17;;
61104;SDS011;46987;32.638;-115.438;2024-01-15T06:32:28;35.88;;;19.00;;
61104;SDS011;46987;32.638;-115.438;2024-01-15T06:34:55;30.67;;;18.02;;
61104;SDS011;46987;32.638;-115.438;2024-01-15T06:37:21;36.13;;;18.50;;
61104;SDS011;46987;32.638;-115.438;2024-01-15T06:39:48;36.50;;;19.08;;
61104;SDS011;46987;32.638;-115.438;2024-01-15T06:42:16;35.05;;;18.80;;
61104;SDS011;46987;32.638;-115.438;2024-01-15T06:44:43;39.03;;;24.30;;
61104;SDS011;46987;32.638;-115.438;2024-01-15T06:47:10;40.42;;;24.63;;
61104;SDS011;46987;32.638;-115.438;2024-01-15T06:49:36;43.30;;;24.88;;
61104;SDS011;46987;32.638;-115.438;2024-01-15T06:52:04;39.90;;;26.02;;
61104;SDS011;46987;32.638;-115.438;2024-01-15T06:54:30;42.13;;;27.25;;
61104;SDS011;46987;32.638;-115.438;2024-01-15T06:56:57;42.50;;;27.15;;
61104;SDS011;46987;32.638;-115.438;2024-01-15T06:59:25;43.03;;;27.17;;
61104;SDS011;46987;32.638;-115.438;2024-01-15T07:01:52;38.28;;;22.65;;
61104;SDS011;46987;32.638;-115.438;2024-01-15T07:04:19;41.17;;;22.98;;
61104;SDS011;46987;32.638;-115.438;2024-01-15T07:06:45;39.97;;;23.27;;
61104;SDS011;46987;32.638;-115.438;2024-01-15T07:09:14;38.20;;;21.83;;
61104;SDS011;46987;32.638;-115.438;2024-01-15T07:11:44;36.53;;;21.73;;
61104;SDS011;46987;32.638;-115.438;2024-01-15T07:14:11;40.20;;;21.33;;
61104;SDS011;46987;32.638;-115.438;2024-01-15T07:16:39;39.90;;;22.40;;
61104;SDS011;46987;32.638;-115.438;2024-01-15T07:19:06;34.70;;;22.15;;
61104;SDS011;46987;32.638;-115.438;2024-01-15T07:21:33;36.92;;;20.65;;
61104;SDS011;46987;32.638;-115.438;2024-01-15T07:24:00;38.75;;;22.17;;
61104;SDS011;46987;32.638;-115.438;2024-01-15T07:26:27;36.42;;;20.75;;
61104;SDS011;46987;32.638;-115.438;2024-01-15T07:28:53;40.55;;;23.60;;
61104;SDS011;46987;32.638;-115.438;2024-01-15T07:31:20;39.35;;;22.20;;
61104;SDS011;46987;32.638;-115.438;2024-01-15T07:33:49;34.88;;;23.13;;
61104;SDS011;46987;32.638;-115.438;2024-01-15T07:36:16;44.80;;;27.02;;
61104;SDS011;46987;32.638;-115.438;2024-01-15T07:38:43;45.15;;;25.42;;
61104;SDS011;46987;32.638;-115.438;2024-01-15T07:41:09;42.83;;;24.63;;
61104;SDS011;46987;32.638;-115.438;2024-01-15T07:43:36;38.05;;;24.30;;
61104;SDS011;46987;32.638;-115.438;2024-01-15T07:46:04;40.55;;;23.95;;
61104;SDS011;46987;32.638;-115.438;2024-01-15T07:48:31;41.60;;;23.55;;
61104;SDS011;46987;32.638;-115.438;2024-01-15T07:50:59;35.33;;;23.75;;
61104;SDS011;46987;32.638;-115.438;2024-01-15T07:53:26;45.55;;;23.35;;
61104;SDS011;46987;32.638;-115.438;2024-01-15T07:55:54;38.78;;;23.98;;
61104;SDS011;46987;32.638;-115.438;2024-01-15T07:58:20;40.50;;;24.67;;
61104;SDS011;46987;32.638;-115.438;2024-01-15T08:00:47;47.80;;;24.98;;
61104;SDS011;46987;32.638;-115.438;2024-01-15T08:03:14;44.90;;;24.80;;
61104;SDS011;46987;32.638;-115.438;2024-01-15T08:05:41;41.80;;;24.45;;
61104;SDS011;46987;32.638;-115.438;2024-01-15T08:08:09;53.78;;;26.67;;
61104;SDS011;46987;32.638;-115.438;2024-01-15T08:10:36;42.20;;;25.98;;
61104;SDS011;46987;32.638;-115.438;2024-01-15T08:13:03;43.92;;;23.63;;
61104;SDS011;46987;32.638;-115.438;2024-01-15T08:15:29;39.28;;;22.88;;
61104;SDS011;46987;32.638;-115.438;2024-01-15T08:17:56;45.58;;;24.52;;
61104;SDS011;46987;32.638;-115.438;2024-01-15T08:20:23;42.25;;;24.08;;
61104;SDS011;46987;32.638;-115.438;2024-01-15T08:22:50;38.30;;;23.30;;
61104;SDS011;46987;32.638;-115.438;2024-01-15T08:25:18;41.90;;;23.63;;
61104;SDS011;46987;32.638;-115.438;2024-01-15T08:27:45;45.15;;;25.08;;
61104;SDS011;46987;32.638;-115.438;2024-01-15T08:30:12;47.65;;;24.48;;
61104;SDS011;46987;32.638;-115.438;2024-01-15T08:32:39;41.10;;;22.83;;
61104;SDS011;46987;32.638;-115.438;2024-01-15T08:35:08;43.95;;;23.40;;
61104;SDS011;46987;32.638;-115.438;2024-01-15T08:37:35;47.75;;;23.02;;
61104;SDS011;46987;32.638;-115.438;2024-01-15T08:40:01;43.70;;;22.50;;
61104;SDS011;46987;32.638;-115.438;2024-01-15T08:42:31;39.67;;;22.30;;
61104;SDS011;46987;32.638;-115.438;2024-01-15T08:44:57;39.97;;;22.55;;
61104;SDS011;46987;32.638;-115.438;2024-01-15T08:47:24;41.00;;;22.40;;
61104;SDS011;46987;32.638;-115.438;2024-01-15T08:49:51;38.70;;;21.48;;
61104;SDS011;46987;32.638;-115.438;2024-01-15T08:52:18;31.67;;;20.25;;
61104;SDS011;46987;32.638;-115.438;2024-01-15T08:54:46;43.17;;;23.27;;
61104;SDS011;46987;32.638;-115.438;2024-01-15T08:57:12;41.50;;;22.23;;
61104;SDS011;46987;32.638;-115.438;2024-01-15T08:59:41;41.67;;;22.40;;
61104;SDS011;46987;32.638;-115.438;2024-01-15T09:02:08;44.03;;;23.30;;
61104;SDS011;46987;32.638;-115.438;2024-01-15T09:04:35;37.45;;;21.10;;
61104;SDS011;46987;32.638;-115.438;2024-01-15T09:07:02;40.92;;;21.00;;
61104;SDS011;46987;32.638;-115.438;2024-01-15T09:09:28;37.80;;;20.67;;
61104;SDS011;46987;32.638;-115.438;2024-01-15T09:11:55;34.10;;;19.95;;
61104;SDS011;46987;32.638;-115.438;2024-01-15T09:14:22;39.53;;;20.90;;
61104;SDS011;46987;32.638;-115.438;2024-01-15T09:16:52;38.50;;;19.80;;
61104;SDS011;46987;32.638;-115.438;2024-01-15T09:19:18;40.45;;;22.38;;
61104;SDS011;46987;32.638;-115.438;2024-01-15T09:21:45;38.20;;;21.40;;
61104;SDS011;46987;32.638;-115.438;2024-01-15T09:24:12;38.13;;;22.60;;
61104;SDS011;46987;32.638;-115.438;2024-01-15T09:26:38;37.75;;;22.35;;
61104;SDS011;46987;32.638;-115.438;2024-01-15T09:29:05;45.97;;;24.52;;
61104;SDS011;46987;32.638;-115.438;2024-01-15T09:31:32;37.50;;;23.17;;
61104;SDS011;46987;32.638;-115.438;2024-01-15T09:34:00;42.25;;;24.45;;
61104;SDS011;46987;32.638;-115.438;2024-01-15T09:36:28;43.60;;;22.80;;
61104;SDS011;46987;32.638;-115.438;2024-01-15T09:38:55;37.67;;;22.65;;
61104;SDS011;46987;32.638;-115.438;2024-01-15T09:41:21;43.13;;;24.08;;
61104;SDS011;46987;32.638;-115.438;2024-01-15T09:43:48;37.38;;;21.73;;
61104;SDS011;46987;32.638;-115.438;2024-01-15T09:46:15;41.78;;;23.20;;
61104;SDS011;46987;32.638;-115.438;2024-01-15T09:48:43;40.00;;;22.83;;
61104;SDS011;46987;32.638;-115.438;2024-01-15T09:51:12;41.50;;;23.95;;
61104;SDS011;46987;32.638;-115.438;2024-01-15T09:53:38;37.63;;;23.08;;
61104;SDS011;46987;32.638;-115.438;2024-01-15T09:56:05;42.80;;;21.85;;
61104;SDS011;46987;32.638;-115.438;2024-01-15T09:58:32;36.72;;;21.40;;
61104;SDS011;46987;32.638;-115.438;2024-01-15T10:01:00;34.72;;;22.20;;
61104;SDS011;46987;32.638;-115.438;2024-01-15T10:03:29;35.08;;;21.48;;
61104;SDS011;46987;32.638;-115.438;2024-01-15T10:05:55;37.33;;;20.65;;
61104;SDS011;46987;32.638;-115.438;2024-01-15T10:08:25;32.58;;;21.05;;
61104;SDS011;46987;32.638;-115.438;2024-01-15T10:10:52;41.95;;;23.33;;
61104;SDS011;46987;32.638;-115.438;2024-01-15T10:13:19;39.13;;;22.13;;
61104;SDS011;46987;32.638;-115.438;2024-01-15T10:15:45;37.70;;;22.45;;
61104;SDS011;46987;32.638;-115.438;2024-01-15T10:18:13;41.88;;;22.48;;
61104;SDS011;46987;32.638;-115.438;2024-01-15T10:20:40;37.45;;;22.58;;
61104;SDS011;46987;32.638;-115.438;2024-01-15T10:23:06;41.88;;;22.60;;
61104;SDS011;46987;32.638;-115.438;2024-01-15T10:25:35;41.03;;;23.48;;
61104;SDS011;46987;32.638;-115.438;2024-01-15T10:28:02;48.03;;;23.42;;
61104;SDS011;46987;32.638;-115.438;2024-01-15T10:30:29;39.28;;;22.17;;
61104;SDS011;46987;32.638;-115.438;2024-01-15T10:32:58;43.38;;;24.02;;
61104;SDS011;46987;32.638;-115.438;2024-01-15T10:35:26;35.78;;;21.48;;
61104;SDS011;46987;32.638;-115.438;2024-01-15T10:37:53;40.03;;;22.45;;
61104;SDS011;46987;32.638;-115.438;2024-01-15T10:40:20;38.65;;;21.45;;
61104;SDS011;46987;32.638;-115.438;2024-01-15T10:42:49;45.80;;;24.35;;
61104;SDS011;46987;32.638;-115.438;2024-01-15T10:45:15;35.63;;;22.98;;
61104;SDS011;46987;32.638;-115.438;2024-01-15T10:47:46;42.03;;;24.55;;
61104;SDS011;46987;32.638;-115.438;2024-01-15T10:50:13;38.90;;;23.27;;
61104;SDS011;46987;32.638;-115.438;2024-01-15T10:52:40;44.15;;;26.00;;
61104;SDS011;46987;32.638;-115.438;2024-01-15T10:55:07;48.60;;;26.08;;
61104;SDS011;46987;32.638;-115.438;2024-01-15T10:57:38;43.88;;;26.38;;
61104;SDS011;46987;32.638;-115.438;2024-01-15T11:00:07;47.75;;;28.98;;
61104;SDS011;46987;32.638;-115.438;2024-01-15T11:02:35;46.97;;;29.63;;
61104;SDS011;46987;32.638;-115.438;2024-01-15T11:05:02;45.63;;;27.40;;
61104;SDS011;46987;32.638;-115.438;2024-01-15T11:07:30;47.05;;;30.48;;
61104;SDS011;46987;32.638;-115.438;2024-01-15T11:09:56;54.72;;;31.92;;
61104;SDS011;46987;32.638;-115.438;2024-01-15T11:12:26;53.33;;;30.58;;
61104;SDS011;46987;32.638;-115.438;2024-01-15T11:15:00;60.03;;;31.98;;
61104;SDS011;46987;32.638;-115.438;2024-01-15T11:17:30;52.70;;;33.08;;
61104;SDS011;46987;32.638;-115.438;2024-01-15T11:20:16;66.43;;;35.63;;
61104;SDS011;46987;32.638;-115.438;2024-01-15T11:22:48;73.50;;;41.50;;
61104;SDS011;46987;32.638;-115.438;2024-01-15T11:27:41;60.08;;;34.47;;
61104;SDS011;46987;32.638;-115.438;2024-01-15T11:30:09;61.45;;;36.15;;
61104;SDS011;46987;32.638;-115.438;2024-01-15T11:32:38;66.18;;;38.33;;
61104;SDS011;46987;32.638;-115.438;2024-01-15T11:35:09;64.35;;;36.70;;
61104;SDS011;46987;32.638;-115.438;2024-01-15T11:40:21;68.07;;;39.53;;
61104;SDS011;46987;32.638;-115.438;2024-01-15T11:42:48;70.07;;;40.80;;
61104;SDS011;46987;32.638;-115.438;2024-01-15T11:45:15;66.10;;;40.60;;
61104;SDS011;46987;32.638;-115.438;2024-01-15T11:50:28;64.75;;;39.72;;
61104;SDS011;46987;32.638;-115.438;2024-01-15T11:52:59;70.70;;;40.03;;
61104;SDS011;46987;32.638;-115.438;2024-01-15T11:55:27;73.18;;;37.58;;
61104;SDS011;46987;32.638;-115.438;2024-01-15T11:57:56;67.05;;;38.60;;
61104;SDS011;46987;32.638;-115.438;2024-01-15T12:00:24;66.47;;;39.20;;
61104;SDS011;46987;32.638;-115.438;2024-01-15T12:02:50;77.90;;;39.70;;
61104;SDS011;46987;32.638;-115.438;2024-01-15T12:05:18;69.57;;;39.15;;
61104;SDS011;46987;32.638;-115.438;2024-01-15T12:07:47;68.22;;;39.00;;
61104;SDS011;46987;32.638;-115.438;2024-01-15T12:10:14;69.30;;;40.75;;
61104;SDS011;46987;32.638;-115.438;2024-01-15T12:12:47;63.03;;;39.25;;
61104;SDS011;46987;32.638;-115.438;2024-01-15T12:15:17;72.95;;;42.03;;
61104;SDS011;46987;32.638;-115.438;2024-01-15T12:17:44;72.47;;;40.90;;
61104;SDS011;46987;32.638;-115.438;2024-01-15T12:20:11;69.72;;;40.33;;
61104;SDS011;46987;32.638;-115.438;2024-01-15T12:22:38;71.30;;;41.55;;
61104;SDS011;46987;32.638;-115.438;2024-01-15T12:25:08;68.78;;;41.70;;
61104;SDS011;46987;32.638;-115.438;2024-01-15T12:27:34;87.40;;;45.30;;
61104;SDS011;46987;32.638;-115.438;2024-01-15T12:30:01;75.50;;;42.92;;
61104;SDS011;46987;32.638;-115.438;2024-01-15T12:32:28;80.35;;;44.85;;
61104;SDS011;46987;32.638;-115.438;2024-01-15T12:34:55;74.95;;;43.65;;
61104;SDS011;46987;32.638;-115.438;2024-01-15T12:37:22;82.15;;;45.67;;
61104;SDS011;46987;32.638;-115.438;2024-01-15T12:39:51;76.80;;;43.92;;
61104;SDS011;46987;32.638;-115.438;2024-01-15T12:42:22;78.07;;;44.20;;
61104;SDS011;46987;32.638;-115.438;2024-01-15T12:44:49;70.22;;;42.70;;
61104;SDS011;46987;32.638;-115.438;2024-01-15T12:47:16;87.45;;;46.25;;
61104;SDS011;46987;32.638;-115.438;2024-01-15T12:49:46;71.32;;;41.55;;
61104;SDS011;46987;32.638;-115.438;2024-01-15T12:52:15;71.00;;;41.40;;
61104;SDS011;46987;32.638;-115.438;2024-01-15T12:54:42;61.83;;;40.33;;
61104;SDS011;46987;32.638;-115.438;2024-01-15T12:57:08;64.53;;;39.15;;
61104;SDS011;46987;32.638;-115.438;2024-01-15T12:59:37;76.78;;;41.67;;
61104;SDS011;46987;32.638;-115.438;2024-01-15T13:02:04;68.57;;;40.25;;
61104;SDS011;46987;32.638;-115.438;2024-01-15T13:04:30;74.00;;;41.58;;
61104;SDS011;46987;32.638;-115.438;2024-01-15T13:06:57;74.07;;;38.28;;
61104;SDS011;46987;32.638;-115.438;2024-01-15T13:09:24;67.72;;;37.58;;
61104;SDS011;46987;32.638;-115.438;2024-01-15T13:11:51;66.38;;;38.83;;
61104;SDS011;46987;32.638;-115.438;2024-01-15T13:14:18;64.22;;;39.70;;
61104;SDS011;46987;32.638;-115.438;2024-01-15T13:16:46;70.70;;;38.78;;
61104;SDS011;46987;32.638;-115.438;2024-01-15T13:19:13;68.82;;;41.22;;
61104;SDS011;46987;32.638;-115.438;2024-01-15T13:21:40;82.63;;;41.08;;
61104;SDS011;46987;32.638;-115.438;2024-01-15T13:24:07;63.22;;;39.45;;
61104;SDS011;46987;32.638;-115.438;2024-01-15T13:26:34;74.63;;;38.42;;
61104;SDS011;46987;32.638;-115.438;2024-01-15T13:29:00;65.68;;;40.55;;
61104;SDS011;46987;32.638;-115.438;2024-01-15T13:31:27;66.82;;;40.80;;
61104;SDS011;46987;32.638;-115.438;2024-01-15T13:33:56;71.45;;;38.75;;
61104;SDS011;46987;32.638;-115.438;2024-01-15T13:36:22;81.82;;;41.47;;
61104;SDS011;46987;32.638;-115.438;2024-01-15T13:38:49;61.50;;;37.83;;
61104;SDS011;46987;32.638;-115.438;2024-01-15T13:41:16;67.50;;;39.70;;
61104;SDS011;46987;32.638;-115.438;2024-01-15T13:43:48;73.15;;;39.92;;
61104;SDS011;46987;32.638;-115.438;2024-01-15T13:46:15;68.28;;;40.70;;
61104;SDS011;46987;32.638;-115.438;2024-01-15T13:48:43;74.90;;;40.88;;
61104;SDS011;46987;32.638;-115.438;2024-01-15T13:51:12;59.00;;;38.97;;
61104;SDS011;46987;32.638;-115.438;2024-01-15T13:53:38;64.90;;;38.97;;
61104;SDS011;46987;32.638;-115.438;2024-01-15T13:56:06;67.57;;;37.97;;
61104;SDS011;46987;32.638;-115.438;2024-01-15T13:58:33;62.90;;;38.03;;